Timimoun, Algeria
Current Conditions -  °F | °C
As of 4:00 AM on Monday 26 Jan 2015 (Local Time) from DAUT Reporting Station
Clear Clear  
Wind Chill:   Ceiling: Unl
Heat Index:   Visibility: 6mi
Dew Point: -3°   Wind: 0mph
Humidity: 49%   Direction: NA
Pressure: 30.12"   Gusts: NA
Location:  29.26°N, 0.23°E
Report Text: DAUT 260300Z 00000KT CAVOK 07/M03 Q1020
Loading
Personal Weather Stations






























Interactive Weather Map New forecast layout! Learn more

10-Day Weather Forecast

Advertisements
Track Severe Weather on mobile